createdAt,value
2022-08-26T00:00:11.725Z,1.50
2022-08-26T00:02:40.126Z,0.80
2022-08-26T00:05:13.955Z,1.00
2022-08-26T00:07:44.252Z,1.45
2022-08-26T00:10:15.869Z,4.68
2022-08-26T00:12:48.257Z,1.85
2022-08-26T00:15:21.649Z,0.90
2022-08-26T00:17:57.388Z,1.45
2022-08-26T00:20:29.601Z,1.15
2022-08-26T00:22:59.772Z,1.83
2022-08-26T00:25:28.043Z,1.92
2022-08-26T00:27:56.494Z,1.17
2022-08-26T00:30:29.461Z,0.77
2022-08-26T00:33:00.535Z,0.80
2022-08-26T00:35:34.539Z,1.00
2022-08-26T00:38:04.209Z,0.77
2022-08-26T00:40:40.892Z,3.58
2022-08-26T00:43:09.490Z,0.90
2022-08-26T00:45:49.212Z,0.80
2022-08-26T00:48:19.983Z,4.78
2022-08-26T00:51:05.360Z,0.68
2022-08-26T00:53:36.877Z,0.65
2022-08-26T00:56:09.746Z,0.77
2022-08-26T00:58:43.365Z,1.50
2022-08-26T01:01:11.718Z,2.92
2022-08-26T01:03:42.059Z,1.55
2022-08-26T01:06:12.987Z,1.67
2022-08-26T01:08:41.682Z,0.80
2022-08-26T01:11:09.630Z,2.67
2022-08-26T01:13:38.474Z,1.23
2022-08-26T01:16:08.631Z,0.85
2022-08-26T01:18:36.280Z,3.40
2022-08-26T01:21:46.155Z,1.40
2022-08-26T01:24:14.091Z,0.80
2022-08-26T01:26:46.031Z,0.98
2022-08-26T01:29:18.073Z,0.93
2022-08-26T01:31:58.248Z,2.78
2022-08-26T01:34:32.395Z,1.17
2022-08-26T01:37:15.809Z,0.82
2022-08-26T01:39:48.890Z,1.25
2022-08-26T01:42:21.374Z,0.85
2022-08-26T01:45:06.193Z,1.00
2022-08-26T01:47:38.629Z,1.00
2022-08-26T01:50:12.591Z,2.10
2022-08-26T01:52:49.902Z,1.90
2022-08-26T01:55:32.074Z,1.73
2022-08-26T01:58:09.934Z,0.80
2022-08-26T02:00:38.507Z,1.02
2022-08-26T02:03:21.599Z,1.25
2022-08-26T02:05:58.232Z,0.80
2022-08-26T02:08:38.837Z,1.30
2022-08-26T02:11:07.032Z,0.70
2022-08-26T02:13:39.745Z,1.60
2022-08-26T02:16:08.485Z,1.05
2022-08-26T02:18:40.552Z,4.10
2022-08-26T02:21:09.986Z,2.83
2022-08-26T02:23:38.311Z,1.55
2022-08-26T02:26:19.329Z,1.20
2022-08-26T02:28:58.707Z,1.00
2022-08-26T02:31:26.152Z,1.40
2022-08-26T02:33:53.460Z,1.52
2022-08-26T02:36:22.657Z,1.50
2022-08-26T02:38:50.495Z,1.08
2022-08-26T02:41:19.389Z,2.33
2022-08-26T02:43:46.557Z,2.33
2022-08-26T02:46:23.096Z,0.90
2022-08-26T02:51:22.661Z,1.95
2022-08-26T02:53:53.779Z,1.33
2022-08-26T02:56:23.208Z,0.85
2022-08-26T02:58:55.759Z,2.10
2022-08-26T03:01:26.250Z,1.73
2022-08-26T03:03:55.007Z,1.20
2022-08-26T03:06:26.319Z,1.25
2022-08-26T03:08:56.080Z,2.25
2022-08-26T03:11:32.749Z,1.23
2022-08-26T03:14:04.720Z,2.75
2022-08-26T03:19:09.319Z,3.00
2022-08-26T03:21:40.695Z,1.23
2022-08-26T03:24:14.121Z,1.45
2022-08-26T03:26:52.502Z,1.27
2022-08-26T03:29:43.137Z,1.05
2022-08-26T03:32:14.318Z,1.35
2022-08-26T03:34:48.592Z,2.05
2022-08-26T03:37:16.413Z,1.75
2022-08-26T03:39:44.553Z,4.28
2022-08-26T03:42:13.156Z,1.15
2022-08-26T03:44:48.976Z,2.03
2022-08-26T03:47:25.395Z,2.65
2022-08-26T03:49:58.007Z,1.65
2022-08-26T03:52:26.676Z,1.83
2022-08-26T03:54:54.519Z,1.70
2022-08-26T03:57:25.562Z,3.40
2022-08-26T03:59:59.905Z,1.35
2022-08-26T04:02:28.162Z,1.88
2022-08-26T04:04:56.041Z,3.58
2022-08-26T04:07:26.402Z,1.80
2022-08-26T04:10:00.707Z,1.73
2022-08-26T04:12:30.703Z,2.05
2022-08-26T04:14:58.516Z,1.25
2022-08-26T04:17:31.661Z,4.45
2022-08-26T04:20:03.374Z,2.70
2022-08-26T04:22:31.709Z,1.88
2022-08-26T04:25:02.565Z,2.90
2022-08-26T04:27:33.988Z,1.55
2022-08-26T04:30:05.411Z,1.67
2022-08-26T04:32:37.577Z,2.90
2022-08-26T04:35:06.212Z,1.77
2022-08-26T04:37:37.687Z,2.13
2022-08-26T04:42:43.099Z,1.52
2022-08-26T04:45:14.266Z,2.05
2022-08-26T04:47:45.450Z,1.35
2022-08-26T04:50:16.001Z,1.65
2022-08-26T04:52:48.861Z,2.38
2022-08-26T04:55:16.256Z,3.10
2022-08-26T04:57:47.459Z,3.70
2022-08-26T05:00:15.559Z,1.88
2022-08-26T05:02:51.509Z,5.45
2022-08-26T05:05:26.789Z,1.80
2022-08-26T05:07:54.553Z,4.70
2022-08-26T05:10:25.293Z,1.63
2022-08-26T05:13:00.425Z,2.35
2022-08-26T05:15:27.664Z,5.80
2022-08-26T05:18:07.544Z,7.25
2022-08-26T05:20:51.295Z,3.75
2022-08-26T05:23:24.914Z,3.17
2022-08-26T05:25:59.199Z,3.40
2022-08-26T05:28:30.416Z,1.60
2022-08-26T05:31:00.575Z,2.58
2022-08-26T05:33:27.757Z,3.38
2022-08-26T05:35:58.363Z,1.65
2022-08-26T05:38:30.138Z,3.15
2022-08-26T05:40:59.150Z,3.33
2022-08-26T05:43:26.812Z,2.55
2022-08-26T05:46:08.068Z,2.78
2022-08-26T05:48:39.031Z,2.67
2022-08-26T05:51:13.070Z,2.05
2022-08-26T05:53:54.614Z,2.08
2022-08-26T05:56:27.925Z,1.70
2022-08-26T05:58:59.795Z,1.77
2022-08-26T06:01:28.660Z,2.53
2022-08-26T06:04:01.847Z,3.13
2022-08-26T06:06:43.032Z,2.15
2022-08-26T06:09:17.453Z,1.67
2022-08-26T06:11:45.495Z,1.73
2022-08-26T06:14:19.796Z,2.20
2022-08-26T06:16:47.597Z,4.72
2022-08-26T06:19:15.842Z,1.40
2022-08-26T06:21:51.377Z,3.08
2022-08-26T06:24:44.331Z,2.30
2022-08-26T06:27:15.338Z,1.48
2022-08-26T06:29:42.958Z,1.63
2022-08-26T06:32:10.376Z,2.92
2022-08-26T06:34:38.926Z,7.20
2022-08-26T06:37:07.577Z,2.08
2022-08-26T06:39:35.137Z,3.58
2022-08-26T06:42:03.374Z,2.13
2022-08-26T06:44:33.540Z,2.45
2022-08-26T06:47:04.736Z,3.00
2022-08-26T06:49:32.280Z,1.58
2022-08-26T06:51:59.640Z,1.85
2022-08-26T06:54:31.908Z,1.98
2022-08-26T06:56:59.817Z,2.75
2022-08-26T06:59:27.263Z,1.77
2022-08-26T07:01:55.166Z,1.73
2022-08-26T07:04:28.084Z,1.40
2022-08-26T07:06:56.034Z,1.92
2022-08-26T07:09:26.166Z,2.58
2022-08-26T07:11:57.137Z,1.40
2022-08-26T07:14:26.303Z,3.05
2022-08-26T07:16:54.369Z,2.55
2022-08-26T07:19:30.657Z,2.78
2022-08-26T07:22:06.380Z,3.28
2022-08-26T07:24:39.286Z,3.03
2022-08-26T07:27:13.062Z,3.47
2022-08-26T07:29:42.644Z,2.63
2022-08-26T07:32:14.653Z,1.92
2022-08-26T07:34:42.607Z,2.58
2022-08-26T07:37:10.179Z,4.15
2022-08-26T07:39:37.916Z,4.55
2022-08-26T07:42:09.882Z,2.08
2022-08-26T07:44:38.027Z,2.10
2022-08-26T07:47:19.400Z,3.92
2022-08-26T07:49:55.057Z,2.90
2022-08-26T07:52:28.751Z,3.97
2022-08-26T07:54:58.434Z,1.80
2022-08-26T07:57:26.965Z,2.35
2022-08-26T07:59:55.532Z,1.83
2022-08-26T08:02:24.299Z,4.50
2022-08-26T08:04:53.490Z,2.83
2022-08-26T08:07:21.488Z,2.10
2022-08-26T08:10:09.933Z,2.55
2022-08-26T08:12:41.046Z,5.25
2022-08-26T08:15:09.615Z,2.33
2022-08-26T08:17:37.351Z,5.90
2022-08-26T08:20:05.736Z,2.75
2022-08-26T08:22:33.395Z,3.10
2022-08-26T08:25:00.705Z,3.35
2022-08-26T08:27:33.197Z,3.75
2022-08-26T08:30:05.859Z,4.25
2022-08-26T08:32:33.594Z,2.80
2022-08-26T08:35:01.999Z,2.63
2022-08-26T08:37:38.370Z,3.70
2022-08-26T08:40:08.222Z,2.88
2022-08-26T08:45:37.789Z,2.40
2022-08-26T08:48:29.484Z,2.50
2022-08-26T08:51:21.391Z,2.13
2022-08-26T08:53:57.090Z,2.17
2022-08-26T08:56:39.468Z,1.40
2022-08-26T08:59:24.733Z,5.03
2022-08-26T09:01:52.294Z,3.72
2022-08-26T09:04:55.335Z,2.13
2022-08-26T09:07:48.338Z,2.22
2022-08-26T09:10:18.811Z,2.97
2022-08-26T09:12:48.290Z,4.82
2022-08-26T09:15:41.603Z,2.38
2022-08-26T09:18:23.678Z,2.95
2022-08-26T09:21:03.558Z,5.22
2022-08-26T09:23:33.912Z,4.28
2022-08-26T09:26:18.483Z,4.05
2022-08-26T09:28:49.513Z,3.22
2022-08-26T09:34:17.414Z,3.45
2022-08-26T09:36:51.912Z,2.97
2022-08-26T09:39:27.570Z,4.63
2022-08-26T09:42:17.310Z,5.75
2022-08-26T09:44:54.963Z,1.88
2022-08-26T09:47:37.464Z,5.13
2022-08-26T09:50:12.649Z,2.22
2022-08-26T09:52:46.494Z,2.58
2022-08-26T09:55:21.664Z,2.05
2022-08-26T09:58:03.596Z,2.47
2022-08-26T10:00:41.470Z,2.35
2022-08-26T10:03:15.546Z,3.38
2022-08-26T10:05:56.738Z,4.28
2022-08-26T10:08:34.142Z,2.33
2022-08-26T10:11:21.785Z,2.15
2022-08-26T10:14:03.579Z,4.20
2022-08-26T10:16:41.200Z,2.67
2022-08-26T10:19:22.773Z,2.85
2022-08-26T10:21:59.144Z,2.95
2022-08-26T10:24:40.475Z,2.38
2022-08-26T10:27:34.924Z,2.50
2022-08-26T10:30:12.838Z,2.33
2022-08-26T10:32:56.272Z,3.88
2022-08-26T10:35:27.896Z,2.42
2022-08-26T10:38:08.386Z,3.92
2022-08-26T10:40:55.601Z,3.72
2022-08-26T10:43:37.165Z,1.75
2022-08-26T10:46:17.410Z,1.75
2022-08-26T10:49:00.362Z,4.32
2022-08-26T10:51:36.744Z,3.35
2022-08-26T10:54:21.718Z,2.28
2022-08-26T10:57:11.226Z,2.55
2022-08-26T10:59:59.543Z,2.42
2022-08-26T11:02:47.582Z,2.08
2022-08-26T11:05:22.582Z,2.20
2022-08-26T11:07:56.363Z,2.58
2022-08-26T11:10:24.378Z,2.20
2022-08-26T11:13:04.634Z,1.55
2022-08-26T11:15:38.982Z,2.05
2022-08-26T11:18:37.170Z,2.25
2022-08-26T11:21:47.794Z,4.35
2022-08-26T11:24:46.774Z,3.10
2022-08-26T11:27:35.938Z,2.08
2022-08-26T11:30:21.429Z,2.50
2022-08-26T11:32:54.118Z,6.07
2022-08-26T11:35:24.790Z,1.75
2022-08-26T11:38:18.561Z,1.58
2022-08-26T11:41:09.040Z,3.40
2022-08-26T11:43:39.656Z,2.15
2022-08-26T11:46:13.409Z,2.25
2022-08-26T11:48:43.567Z,3.88
2022-08-26T11:51:32.035Z,3.88
2022-08-26T11:54:10.547Z,3.00
2022-08-26T11:56:46.124Z,5.90
2022-08-26T11:59:38.931Z,1.77
2022-08-26T12:02:15.686Z,2.75
2022-08-26T12:04:52.013Z,1.95
2022-08-26T12:07:27.849Z,10.07
2022-08-26T12:10:02.318Z,4.93
2022-08-26T12:12:42.729Z,1.35
2022-08-26T12:15:13.070Z,2.27
2022-08-26T12:17:41.078Z,4.73
2022-08-26T12:20:19.572Z,4.55
2022-08-26T12:22:48.085Z,3.33
2022-08-26T12:25:24.156Z,4.75
2022-08-26T12:27:54.034Z,3.33
2022-08-26T12:30:26.198Z,2.85
2022-08-26T12:33:23.007Z,4.70
2022-08-26T12:35:56.769Z,2.65
2022-08-26T12:38:30.164Z,2.05
2022-08-26T12:40:57.932Z,2.65
2022-08-26T12:43:47.868Z,2.42
2022-08-26T12:46:24.820Z,4.32
2022-08-26T12:48:53.198Z,1.92
2022-08-26T12:51:29.305Z,1.67
2022-08-26T12:53:58.312Z,5.72
2022-08-26T12:56:43.361Z,2.80
2022-08-26T12:59:24.633Z,3.58
2022-08-26T13:04:39.124Z,5.85
2022-08-26T13:07:16.461Z,2.17
2022-08-26T13:09:53.330Z,1.73
2022-08-26T13:12:37.684Z,3.72
2022-08-26T13:15:10.102Z,3.25
2022-08-26T13:17:40.466Z,1.95
2022-08-26T13:20:08.335Z,2.30
2022-08-26T13:22:42.511Z,5.07
2022-08-26T13:25:14.608Z,10.00
2022-08-26T13:27:46.996Z,1.92
2022-08-26T13:30:15.592Z,2.13
2022-08-26T13:32:44.140Z,2.53
2022-08-26T13:35:11.955Z,1.73
2022-08-26T13:37:42.223Z,4.38
2022-08-26T13:40:10.405Z,1.83
2022-08-26T13:42:37.858Z,1.83
2022-08-26T13:45:17.397Z,2.15
2022-08-26T13:47:44.916Z,3.80
2022-08-26T13:50:12.535Z,2.58
2022-08-26T13:52:43.745Z,2.30
2022-08-26T13:57:38.811Z,3.60
2022-08-26T14:00:10.981Z,2.90
2022-08-26T14:02:42.369Z,3.55
2022-08-26T14:07:45.336Z,1.95
2022-08-26T14:10:13.271Z,2.50
2022-08-26T14:12:40.840Z,1.70
2022-08-26T14:15:09.065Z,2.78
2022-08-26T14:17:36.480Z,2.08
2022-08-26T14:20:08.139Z,1.95
2022-08-26T14:22:40.542Z,5.38
2022-08-26T14:25:14.993Z,4.40
2022-08-26T14:27:46.477Z,6.13
2022-08-26T14:30:17.882Z,3.72
2022-08-26T14:32:51.524Z,3.47
2022-08-26T14:35:28.723Z,3.83
2022-08-26T14:37:57.006Z,7.47
2022-08-26T14:40:26.989Z,4.28
2022-08-26T14:42:55.185Z,2.13
2022-08-26T14:45:27.789Z,3.78
2022-08-26T14:47:57.241Z,4.60
2022-08-26T14:50:26.437Z,3.05
2022-08-26T14:53:12.525Z,5.07
2022-08-26T14:55:44.077Z,2.38
2022-08-26T14:58:15.982Z,1.70
2022-08-26T15:00:44.518Z,3.10
2022-08-26T15:05:48.325Z,4.38
2022-08-26T15:08:17.414Z,4.65
2022-08-26T15:10:49.163Z,3.80
2022-08-26T15:13:20.610Z,2.28
2022-08-26T15:15:52.994Z,2.45
2022-08-26T15:18:24.296Z,7.57
2022-08-26T15:20:55.253Z,1.83
2022-08-26T15:23:23.220Z,3.85
2022-08-26T15:25:51.950Z,3.47
2022-08-26T15:28:20.295Z,3.75
2022-08-26T15:30:51.502Z,1.73
2022-08-26T15:33:22.695Z,2.17
2022-08-26T15:38:25.428Z,3.15
2022-08-26T15:40:53.714Z,2.05
2022-08-26T15:43:29.033Z,8.52
2022-08-26T15:46:04.427Z,9.18
2022-08-26T15:48:32.117Z,4.82
2022-08-26T15:51:01.816Z,7.43
2022-08-26T15:53:32.270Z,5.15
2022-08-26T15:56:01.165Z,2.03
2022-08-26T15:58:30.000Z,2.35
2022-08-26T16:01:00.975Z,3.40
2022-08-26T16:03:28.638Z,4.28
2022-08-26T16:05:55.961Z,3.80
2022-08-26T16:08:23.292Z,4.65
2022-08-26T16:10:51.572Z,2.28
2022-08-26T16:13:20.458Z,1.88
2022-08-26T16:15:48.640Z,4.10
2022-08-26T16:18:16.913Z,1.77
2022-08-26T16:21:12.879Z,3.08
2022-08-26T16:23:38.658Z,2.58
2022-08-26T16:26:20.309Z,2.55
2022-08-26T16:28:47.954Z,3.78
2022-08-26T16:31:15.833Z,3.58
2022-08-26T16:33:43.131Z,3.25
2022-08-26T16:36:11.202Z,2.00
2022-08-26T16:38:39.415Z,2.95
2022-08-26T16:41:07.448Z,1.73
2022-08-26T16:43:35.160Z,3.20
2022-08-26T16:46:02.502Z,3.17
2022-08-26T16:48:29.845Z,1.60
2022-08-26T16:50:57.107Z,2.25
2022-08-26T16:53:24.487Z,3.70
2022-08-26T16:55:51.980Z,1.98
2022-08-26T16:58:22.135Z,4.65
2022-08-26T17:00:49.988Z,3.42
2022-08-26T17:03:17.560Z,2.85
2022-08-26T17:05:45.556Z,2.38
2022-08-26T17:08:16.356Z,4.05
2022-08-26T17:10:55.523Z,5.38
2022-08-26T17:13:34.790Z,1.52
2022-08-26T17:16:04.401Z,3.35
2022-08-26T17:18:33.076Z,3.47
2022-08-26T17:21:08.247Z,2.65
2022-08-26T17:23:36.451Z,4.32
2022-08-26T17:26:04.628Z,2.88
2022-08-26T17:28:36.178Z,1.75
2022-08-26T17:31:09.318Z,2.92
2022-08-26T17:33:37.330Z,3.35
2022-08-26T17:36:09.756Z,2.70
2022-08-26T17:38:38.469Z,2.33
2022-08-26T17:41:12.960Z,2.05
2022-08-26T17:43:41.096Z,7.78
2022-08-26T17:46:10.502Z,2.10
2022-08-26T17:48:39.625Z,4.28
2022-08-26T17:51:09.329Z,3.95
2022-08-26T17:53:37.444Z,3.15
2022-08-26T17:56:10.348Z,2.13
2022-08-26T17:58:48.196Z,4.30
2022-08-26T18:01:20.086Z,3.53
2022-08-26T18:03:47.574Z,3.88
2022-08-26T18:06:16.233Z,4.47
2022-08-26T18:08:45.208Z,3.40
2022-08-26T18:11:15.509Z,3.20
2022-08-26T18:13:47.053Z,5.72
2022-08-26T18:16:16.590Z,3.83
2022-08-26T18:18:44.823Z,4.22
2022-08-26T18:21:27.212Z,4.38
2022-08-26T18:23:54.966Z,7.68
2022-08-26T18:26:29.599Z,4.03
2022-08-26T18:29:02.063Z,2.72
2022-08-26T18:31:30.225Z,5.63
2022-08-26T18:34:04.994Z,2.40
2022-08-26T18:36:35.295Z,5.18
2022-08-26T18:39:05.111Z,5.60
2022-08-26T18:41:37.750Z,3.15
2022-08-26T18:44:08.490Z,4.15
2022-08-26T18:46:40.526Z,5.22
2022-08-26T18:49:14.547Z,6.38
2022-08-26T18:51:43.096Z,5.68
2022-08-26T18:54:11.909Z,3.53
2022-08-26T18:56:42.536Z,4.15
2022-08-26T18:59:14.589Z,6.35
2022-08-26T19:01:42.810Z,4.03
2022-08-26T19:04:14.736Z,4.35
2022-08-26T19:06:44.250Z,5.68
2022-08-26T19:09:14.714Z,10.32
2022-08-26T19:11:46.400Z,4.63
2022-08-26T19:14:15.740Z,10.15
2022-08-26T19:16:45.008Z,4.80
2022-08-26T19:19:12.285Z,7.05
2022-08-26T19:21:40.195Z,5.93
2022-08-26T19:24:15.612Z,8.60
2022-08-26T19:26:44.533Z,5.13
2022-08-26T19:29:12.648Z,3.78
2022-08-26T19:31:39.955Z,7.32
2022-08-26T19:34:09.812Z,4.88
2022-08-26T19:36:37.927Z,5.25
2022-08-26T19:39:08.907Z,2.85
2022-08-26T19:41:38.542Z,3.22
2022-08-26T19:44:13.257Z,4.43
2022-08-26T19:46:40.739Z,5.18
2022-08-26T19:49:07.959Z,5.82
2022-08-26T19:51:36.675Z,4.65
2022-08-26T19:54:04.468Z,4.18
2022-08-26T19:56:32.150Z,3.00
2022-08-26T19:58:59.510Z,4.65
2022-08-26T20:01:26.693Z,5.28
2022-08-26T20:06:21.074Z,12.20
2022-08-26T20:08:50.736Z,10.90
2022-08-26T20:11:19.437Z,27.40
2022-08-26T20:13:48.732Z,33.17
2022-08-26T20:16:17.081Z,30.50
2022-08-26T20:19:04.214Z,28.20
2022-08-26T20:21:35.805Z,21.88
2022-08-26T20:24:08.709Z,7.43
2022-08-26T20:26:38.648Z,5.97
2022-08-26T20:29:07.287Z,5.10
2022-08-26T20:31:35.538Z,6.93
2022-08-26T20:34:03.076Z,8.70
2022-08-26T20:36:30.421Z,11.98
2022-08-26T20:38:58.667Z,21.35
2022-08-26T20:41:26.722Z,18.33
2022-08-26T20:43:54.960Z,17.20
2022-08-26T20:46:24.858Z,21.90
2022-08-26T20:48:53.722Z,11.38
2022-08-26T20:51:23.163Z,11.90
2022-08-26T20:53:51.245Z,28.23
2022-08-26T20:56:23.852Z,41.03
2022-08-26T20:58:56.385Z,40.63
2022-08-26T21:01:27.107Z,31.63
2022-08-26T21:03:56.013Z,23.80
2022-08-26T21:06:23.868Z,18.05
2022-08-26T21:08:51.246Z,11.25
2022-08-26T21:11:18.563Z,16.27
2022-08-26T21:14:04.375Z,20.23
2022-08-26T21:16:32.425Z,28.83
2022-08-26T21:19:00.562Z,24.42
2022-08-26T21:21:28.592Z,30.15
2022-08-26T21:23:56.529Z,38.75
2022-08-26T21:26:24.437Z,41.88
2022-08-26T21:28:52.028Z,40.65
2022-08-26T21:31:22.685Z,43.97
2022-08-26T21:33:51.216Z,21.25
2022-08-26T21:36:19.595Z,16.92
2022-08-26T21:38:47.172Z,11.57
2022-08-26T21:41:19.535Z,9.88
2022-08-26T21:43:48.731Z,7.95
2022-08-26T21:46:19.541Z,6.43
2022-08-26T21:48:53.371Z,5.25
2022-08-26T21:51:23.182Z,5.68
2022-08-26T21:53:53.079Z,13.05
2022-08-26T21:56:21.462Z,9.15
2022-08-26T21:58:48.855Z,14.75
2022-08-26T22:01:22.639Z,15.15
2022-08-26T22:03:52.612Z,19.58
2022-08-26T22:06:22.952Z,14.65
2022-08-26T22:08:50.944Z,9.52
2022-08-26T22:11:18.960Z,12.52
2022-08-26T22:13:47.142Z,7.07
2022-08-26T22:16:15.073Z,6.45
2022-08-26T22:18:46.057Z,8.65
2022-08-26T22:21:17.277Z,5.90
2022-08-26T22:23:44.863Z,5.25
2022-08-26T22:26:14.540Z,4.63
2022-08-26T22:28:45.354Z,5.50
2022-08-26T22:31:19.081Z,5.32
2022-08-26T22:33:57.621Z,9.35
2022-08-26T22:36:27.425Z,8.38
2022-08-26T22:38:56.196Z,7.85
2022-08-26T22:41:26.142Z,5.55
2022-08-26T22:43:53.499Z,7.72
2022-08-26T22:46:25.211Z,5.30
2022-08-26T22:48:54.211Z,5.03
2022-08-26T22:51:23.282Z,5.60
2022-08-26T22:53:50.507Z,8.13
2022-08-26T22:56:19.294Z,7.53
2022-08-26T22:58:50.748Z,6.97
2022-08-26T23:03:46.352Z,5.90
2022-08-26T23:06:13.943Z,4.05
2022-08-26T23:08:42.197Z,3.50
2022-08-26T23:11:11.183Z,4.07
2022-08-26T23:13:38.993Z,5.18
2022-08-26T23:16:10.284Z,5.60
2022-08-26T23:18:38.767Z,4.72
2022-08-26T23:21:06.766Z,4.93
2022-08-26T23:23:37.522Z,5.22
2022-08-26T23:26:06.446Z,6.95
2022-08-26T23:28:35.110Z,5.18
2022-08-26T23:31:02.395Z,6.82
2022-08-26T23:33:49.836Z,7.57
2022-08-26T23:36:18.527Z,6.35
2022-08-26T23:38:52.690Z,5.30
2022-08-26T23:41:22.570Z,4.45
2022-08-26T23:43:53.406Z,8.52
2022-08-26T23:46:21.019Z,5.50
2022-08-26T23:48:48.237Z,5.05
2022-08-26T23:51:34.345Z,9.77
2022-08-26T23:54:01.619Z,5.63
2022-08-26T23:56:29.372Z,3.85
2022-08-26T23:58:56.675Z,7.30
